sensor_id;sensor_type;location;lat;lon;timestamp;P1;durP1;ratioP1;P2;durP2;ratioP2
65982;SDS011;52740;40.620;-8.640;2022-08-03T00:00:50;16.40;;;8.70;;
65982;SDS011;52740;40.620;-8.640;2022-08-03T00:02:50;21.33;;;8.73;;
65982;SDS011;52740;40.620;-8.640;2022-08-03T00:04:51;16.30;;;7.80;;
65982;SDS011;52740;40.620;-8.640;2022-08-03T00:06:52;17.75;;;8.10;;
65982;SDS011;52740;40.620;-8.640;2022-08-03T00:08:53;18.27;;;8.93;;
65982;SDS011;52740;40.620;-8.640;2022-08-03T00:10:54;15.60;;;8.27;;
65982;SDS011;52740;40.620;-8.640;2022-08-03T00:12:54;18.92;;;8.50;;
65982;SDS011;52740;40.620;-8.640;2022-08-03T00:14:55;13.88;;;8.38;;
65982;SDS011;52740;40.620;-8.640;2022-08-03T00:16:56;18.70;;;8.07;;
65982;SDS011;52740;40.620;-8.640;2022-08-03T00:18:57;19.55;;;8.48;;
65982;SDS011;52740;40.620;-8.640;2022-08-03T00:20:58;16.73;;;9.32;;
65982;SDS011;52740;40.620;-8.640;2022-08-03T00:22:58;15.40;;;8.40;;
65982;SDS011;52740;40.620;-8.640;2022-08-03T00:24:59;18.67;;;8.70;;
65982;SDS011;52740;40.620;-8.640;2022-08-03T00:27:00;18.23;;;8.07;;
65982;SDS011;52740;40.620;-8.640;2022-08-03T00:29:01;18.42;;;8.85;;
65982;SDS011;52740;40.620;-8.640;2022-08-03T00:31:02;14.85;;;8.50;;
65982;SDS011;52740;40.620;-8.640;2022-08-03T00:33:02;18.10;;;7.93;;
65982;SDS011;52740;40.620;-8.640;2022-08-03T00:35:04;22.05;;;9.00;;
65982;SDS011;52740;40.620;-8.640;2022-08-03T00:37:05;20.13;;;8.23;;
65982;SDS011;52740;40.620;-8.640;2022-08-03T00:39:06;12.20;;;7.18;;
65982;SDS011;52740;40.620;-8.640;2022-08-03T00:41:07;21.95;;;8.30;;
65982;SDS011;52740;40.620;-8.640;2022-08-03T00:43:08;20.63;;;9.07;;
65982;SDS011;52740;40.620;-8.640;2022-08-03T00:45:09;15.88;;;9.18;;
65982;SDS011;52740;40.620;-8.640;2022-08-03T00:47:10;19.33;;;7.80;;
65982;SDS011;52740;40.620;-8.640;2022-08-03T00:49:11;16.40;;;7.45;;
65982;SDS011;52740;40.620;-8.640;2022-08-03T00:51:12;20.00;;;8.77;;
65982;SDS011;52740;40.620;-8.640;2022-08-03T00:53:13;13.55;;;7.78;;
65982;SDS011;52740;40.620;-8.640;2022-08-03T00:55:14;19.05;;;8.88;;
65982;SDS011;52740;40.620;-8.640;2022-08-03T00:57:15;24.48;;;8.68;;
65982;SDS011;52740;40.620;-8.640;2022-08-03T00:59:16;13.55;;;7.05;;
65982;SDS011;52740;40.620;-8.640;2022-08-03T01:01:17;19.83;;;7.80;;
65982;SDS011;52740;40.620;-8.640;2022-08-03T01:03:18;17.48;;;8.85;;
65982;SDS011;52740;40.620;-8.640;2022-08-03T01:05:19;21.70;;;8.95;;
65982;SDS011;52740;40.620;-8.640;2022-08-03T01:14:57;17.00;;;9.70;;
65982;SDS011;52740;40.620;-8.640;2022-08-03T01:17:15;16.73;;;8.73;;
65982;SDS011;52740;40.620;-8.640;2022-08-03T01:31:38;17.67;;;8.02;;
65982;SDS011;52740;40.620;-8.640;2022-08-03T01:33:43;18.92;;;6.85;;
65982;SDS011;52740;40.620;-8.640;2022-08-03T01:36:05;10.75;;;6.32;;
65982;SDS011;52740;40.620;-8.640;2022-08-03T01:38:17;15.00;;;7.18;;
65982;SDS011;52740;40.620;-8.640;2022-08-03T01:40:24;10.82;;;6.00;;
65982;SDS011;52740;40.620;-8.640;2022-08-03T01:42:27;11.65;;;6.15;;
65982;SDS011;52740;40.620;-8.640;2022-08-03T01:44:29;13.55;;;6.55;;
65982;SDS011;52740;40.620;-8.640;2022-08-03T01:46:35;15.95;;;5.80;;
65982;SDS011;52740;40.620;-8.640;2022-08-03T01:48:38;10.23;;;5.60;;
65982;SDS011;52740;40.620;-8.640;2022-08-03T01:50:42;16.90;;;6.72;;
65982;SDS011;52740;40.620;-8.640;2022-08-03T01:52:45;13.05;;;6.90;;
65982;SDS011;52740;40.620;-8.640;2022-08-03T01:54:48;15.55;;;7.85;;
65982;SDS011;52740;40.620;-8.640;2022-08-03T01:56:51;14.73;;;6.70;;
65982;SDS011;52740;40.620;-8.640;2022-08-03T01:58:56;14.38;;;6.65;;
65982;SDS011;52740;40.620;-8.640;2022-08-03T02:01:00;16.05;;;7.45;;
65982;SDS011;52740;40.620;-8.640;2022-08-03T02:03:04;17.27;;;7.20;;
65982;SDS011;52740;40.620;-8.640;2022-08-03T02:05:07;16.45;;;7.22;;
65982;SDS011;52740;40.620;-8.640;2022-08-03T02:07:09;17.83;;;8.43;;
65982;SDS011;52740;40.620;-8.640;2022-08-03T02:09:13;16.23;;;7.10;;
65982;SDS011;52740;40.620;-8.640;2022-08-03T02:11:15;11.25;;;6.30;;
65982;SDS011;52740;40.620;-8.640;2022-08-03T02:13:16;16.17;;;7.43;;
65982;SDS011;52740;40.620;-8.640;2022-08-03T02:15:19;20.00;;;8.10;;
65982;SDS011;52740;40.620;-8.640;2022-08-03T02:17:22;16.42;;;7.75;;
65982;SDS011;52740;40.620;-8.640;2022-08-03T02:19:25;14.18;;;7.88;;
65982;SDS011;52740;40.620;-8.640;2022-08-03T02:21:28;18.35;;;8.25;;
65982;SDS011;52740;40.620;-8.640;2022-08-03T02:23:31;20.55;;;9.50;;
65982;SDS011;52740;40.620;-8.640;2022-08-03T02:25:33;22.70;;;11.50;;
65982;SDS011;52740;40.620;-8.640;2022-08-03T02:30:16;29.08;;;13.73;;
65982;SDS011;52740;40.620;-8.640;2022-08-03T02:32:20;30.33;;;12.68;;
65982;SDS011;52740;40.620;-8.640;2022-08-03T02:34:30;31.05;;;12.95;;
65982;SDS011;52740;40.620;-8.640;2022-08-03T02:36:35;22.70;;;11.50;;
65982;SDS011;52740;40.620;-8.640;2022-08-03T02:38:40;26.30;;;12.27;;
65982;SDS011;52740;40.620;-8.640;2022-08-03T02:40:43;24.38;;;11.68;;
65982;SDS011;52740;40.620;-8.640;2022-08-03T02:42:45;26.23;;;12.35;;
65982;SDS011;52740;40.620;-8.640;2022-08-03T02:44:49;26.45;;;12.20;;
65982;SDS011;52740;40.620;-8.640;2022-08-03T02:46:53;25.00;;;11.15;;
65982;SDS011;52740;40.620;-8.640;2022-08-03T02:48:58;26.00;;;11.68;;
65982;SDS011;52740;40.620;-8.640;2022-08-03T02:51:02;28.92;;;12.20;;
65982;SDS011;52740;40.620;-8.640;2022-08-03T02:53:03;24.73;;;11.73;;
65982;SDS011;52740;40.620;-8.640;2022-08-03T02:55:05;29.65;;;13.30;;
65982;SDS011;52740;40.620;-8.640;2022-08-03T02:57:09;33.67;;;13.68;;
65982;SDS011;52740;40.620;-8.640;2022-08-03T02:59:12;25.73;;;12.52;;
65982;SDS011;52740;40.620;-8.640;2022-08-03T03:01:14;31.92;;;13.88;;
65982;SDS011;52740;40.620;-8.640;2022-08-03T03:03:16;26.25;;;11.23;;
65982;SDS011;52740;40.620;-8.640;2022-08-03T03:05:17;28.38;;;12.23;;
65982;SDS011;52740;40.620;-8.640;2022-08-03T03:07:18;23.83;;;11.23;;
65982;SDS011;52740;40.620;-8.640;2022-08-03T03:09:19;22.75;;;10.18;;
65982;SDS011;52740;40.620;-8.640;2022-08-03T03:11:21;20.55;;;9.57;;
65982;SDS011;52740;40.620;-8.640;2022-08-03T03:13:23;23.67;;;9.75;;
65982;SDS011;52740;40.620;-8.640;2022-08-03T03:15:24;14.98;;;8.85;;
65982;SDS011;52740;40.620;-8.640;2022-08-03T03:17:27;20.88;;;9.00;;
65982;SDS011;52740;40.620;-8.640;2022-08-03T03:19:30;21.58;;;10.15;;
65982;SDS011;52740;40.620;-8.640;2022-08-03T03:21:32;17.00;;;9.63;;
65982;SDS011;52740;40.620;-8.640;2022-08-03T03:23:36;16.77;;;8.55;;
65982;SDS011;52740;40.620;-8.640;2022-08-03T03:25:38;19.92;;;9.40;;
65982;SDS011;52740;40.620;-8.640;2022-08-03T03:27:40;21.48;;;9.73;;
65982;SDS011;52740;40.620;-8.640;2022-08-03T03:29:42;22.42;;;9.73;;
65982;SDS011;52740;40.620;-8.640;2022-08-03T03:31:43;22.67;;;10.52;;
65982;SDS011;52740;40.620;-8.640;2022-08-03T03:33:44;22.92;;;10.02;;
65982;SDS011;52740;40.620;-8.640;2022-08-03T03:35:45;23.98;;;10.30;;
65982;SDS011;52740;40.620;-8.640;2022-08-03T03:37:46;18.52;;;9.35;;
65982;SDS011;52740;40.620;-8.640;2022-08-03T03:39:47;20.38;;;10.43;;
65982;SDS011;52740;40.620;-8.640;2022-08-03T03:41:48;19.20;;;9.80;;
65982;SDS011;52740;40.620;-8.640;2022-08-03T03:43:49;18.33;;;9.20;;
65982;SDS011;52740;40.620;-8.640;2022-08-03T03:45:50;21.00;;;9.38;;
65982;SDS011;52740;40.620;-8.640;2022-08-03T03:47:52;17.75;;;9.15;;
65982;SDS011;52740;40.620;-8.640;2022-08-03T03:49:53;21.23;;;9.43;;
65982;SDS011;52740;40.620;-8.640;2022-08-03T03:51:55;18.65;;;9.23;;
65982;SDS011;52740;40.620;-8.640;2022-08-03T03:53:57;24.55;;;10.45;;
65982;SDS011;52740;40.620;-8.640;2022-08-03T03:55:59;25.40;;;10.00;;
65982;SDS011;52740;40.620;-8.640;2022-08-03T03:58:00;21.50;;;10.55;;
65982;SDS011;52740;40.620;-8.640;2022-08-03T04:00:01;20.75;;;9.15;;
65982;SDS011;52740;40.620;-8.640;2022-08-03T04:02:05;20.42;;;9.43;;
65982;SDS011;52740;40.620;-8.640;2022-08-03T04:04:07;19.00;;;8.50;;
65982;SDS011;52740;40.620;-8.640;2022-08-03T04:06:27;19.73;;;9.07;;
65982;SDS011;52740;40.620;-8.640;2022-08-03T04:08:46;19.67;;;9.73;;
65982;SDS011;52740;40.620;-8.640;2022-08-03T04:13:54;19.55;;;8.30;;
65982;SDS011;52740;40.620;-8.640;2022-08-03T04:18:00;15.93;;;6.97;;
65982;SDS011;52740;40.620;-8.640;2022-08-03T04:20:03;19.80;;;8.18;;
65982;SDS011;52740;40.620;-8.640;2022-08-03T04:22:06;18.75;;;8.60;;
65982;SDS011;52740;40.620;-8.640;2022-08-03T04:24:10;20.42;;;9.02;;
65982;SDS011;52740;40.620;-8.640;2022-08-03T04:26:14;18.63;;;8.35;;
65982;SDS011;52740;40.620;-8.640;2022-08-03T04:28:18;13.45;;;6.43;;
65982;SDS011;52740;40.620;-8.640;2022-08-03T04:30:21;14.55;;;7.40;;
65982;SDS011;52740;40.620;-8.640;2022-08-03T04:32:22;12.10;;;7.10;;
65982;SDS011;52740;40.620;-8.640;2022-08-03T04:34:27;19.00;;;7.13;;
65982;SDS011;52740;40.620;-8.640;2022-08-03T04:36:30;13.23;;;7.28;;
65982;SDS011;52740;40.620;-8.640;2022-08-03T04:38:35;14.60;;;6.68;;
65982;SDS011;52740;40.620;-8.640;2022-08-03T04:40:40;14.25;;;7.47;;
65982;SDS011;52740;40.620;-8.640;2022-08-03T04:44:43;15.10;;;6.72;;
65982;SDS011;52740;40.620;-8.640;2022-08-03T04:46:46;13.75;;;6.63;;
65982;SDS011;52740;40.620;-8.640;2022-08-03T04:48:47;13.45;;;6.20;;
65982;SDS011;52740;40.620;-8.640;2022-08-03T04:50:48;11.25;;;5.47;;
65982;SDS011;52740;40.620;-8.640;2022-08-03T04:52:49;15.32;;;7.80;;
65982;SDS011;52740;40.620;-8.640;2022-08-03T04:54:50;12.98;;;7.57;;
65982;SDS011;52740;40.620;-8.640;2022-08-03T04:56:52;13.00;;;6.68;;
65982;SDS011;52740;40.620;-8.640;2022-08-03T04:58:52;15.20;;;7.70;;
65982;SDS011;52740;40.620;-8.640;2022-08-03T05:00:53;16.80;;;7.40;;
65982;SDS011;52740;40.620;-8.640;2022-08-03T05:02:54;19.48;;;7.38;;
65982;SDS011;52740;40.620;-8.640;2022-08-03T05:04:55;19.92;;;7.93;;
65982;SDS011;52740;40.620;-8.640;2022-08-03T05:06:56;14.82;;;7.78;;
65982;SDS011;52740;40.620;-8.640;2022-08-03T05:08:56;15.80;;;7.35;;
65982;SDS011;52740;40.620;-8.640;2022-08-03T05:10:57;14.43;;;6.68;;
65982;SDS011;52740;40.620;-8.640;2022-08-03T05:12:58;15.05;;;7.50;;
65982;SDS011;52740;40.620;-8.640;2022-08-03T05:14:59;16.88;;;6.32;;
65982;SDS011;52740;40.620;-8.640;2022-08-03T05:17:00;14.95;;;6.88;;
65982;SDS011;52740;40.620;-8.640;2022-08-03T05:19:01;18.65;;;7.47;;
65982;SDS011;52740;40.620;-8.640;2022-08-03T05:21:02;15.77;;;8.02;;
65982;SDS011;52740;40.620;-8.640;2022-08-03T05:23:04;15.65;;;7.45;;
65982;SDS011;52740;40.620;-8.640;2022-08-03T05:25:05;13.70;;;7.03;;
65982;SDS011;52740;40.620;-8.640;2022-08-03T05:27:06;13.75;;;6.85;;
65982;SDS011;52740;40.620;-8.640;2022-08-03T05:29:06;12.43;;;6.40;;
65982;SDS011;52740;40.620;-8.640;2022-08-03T05:31:07;20.65;;;7.78;;
65982;SDS011;52740;40.620;-8.640;2022-08-03T05:33:08;14.90;;;7.32;;
65982;SDS011;52740;40.620;-8.640;2022-08-03T05:35:10;15.98;;;8.18;;
65982;SDS011;52740;40.620;-8.640;2022-08-03T05:37:11;21.17;;;8.68;;
65982;SDS011;52740;40.620;-8.640;2022-08-03T05:39:11;17.90;;;7.55;;
65982;SDS011;52740;40.620;-8.640;2022-08-03T05:41:12;21.85;;;8.77;;
65982;SDS011;52740;40.620;-8.640;2022-08-03T05:43:13;15.50;;;8.23;;
65982;SDS011;52740;40.620;-8.640;2022-08-03T05:45:14;18.67;;;9.65;;
65982;SDS011;52740;40.620;-8.640;2022-08-03T05:47:14;19.08;;;8.85;;
65982;SDS011;52740;40.620;-8.640;2022-08-03T05:49:15;17.40;;;9.50;;
65982;SDS011;52740;40.620;-8.640;2022-08-03T05:51:16;15.25;;;9.18;;
65982;SDS011;52740;40.620;-8.640;2022-08-03T05:53:17;16.00;;;8.88;;
65982;SDS011;52740;40.620;-8.640;2022-08-03T05:55:18;20.73;;;10.57;;
65982;SDS011;52740;40.620;-8.640;2022-08-03T05:57:18;17.60;;;9.55;;
65982;SDS011;52740;40.620;-8.640;2022-08-03T05:59:19;20.63;;;9.02;;
65982;SDS011;52740;40.620;-8.640;2022-08-03T06:01:20;15.32;;;8.52;;
65982;SDS011;52740;40.620;-8.640;2022-08-03T06:03:21;17.13;;;9.32;;
65982;SDS011;52740;40.620;-8.640;2022-08-03T06:05:22;16.40;;;9.02;;
65982;SDS011;52740;40.620;-8.640;2022-08-03T06:07:26;13.77;;;7.88;;
65982;SDS011;52740;40.620;-8.640;2022-08-03T06:09:27;16.00;;;9.45;;
65982;SDS011;52740;40.620;-8.640;2022-08-03T06:11:29;17.65;;;8.50;;
65982;SDS011;52740;40.620;-8.640;2022-08-03T06:13:29;21.35;;;9.45;;
65982;SDS011;52740;40.620;-8.640;2022-08-03T06:15:30;12.95;;;8.15;;
65982;SDS011;52740;40.620;-8.640;2022-08-03T06:17:32;19.02;;;9.02;;
65982;SDS011;52740;40.620;-8.640;2022-08-03T06:19:33;19.85;;;8.30;;
65982;SDS011;52740;40.620;-8.640;2022-08-03T06:21:33;19.67;;;8.50;;
65982;SDS011;52740;40.620;-8.640;2022-08-03T06:23:34;17.13;;;8.85;;
65982;SDS011;52740;40.620;-8.640;2022-08-03T06:25:35;17.77;;;8.82;;
65982;SDS011;52740;40.620;-8.640;2022-08-03T06:27:36;15.75;;;9.35;;
65982;SDS011;52740;40.620;-8.640;2022-08-03T06:29:39;16.02;;;8.55;;
65982;SDS011;52740;40.620;-8.640;2022-08-03T06:31:40;14.73;;;7.97;;
65982;SDS011;52740;40.620;-8.640;2022-08-03T06:33:41;16.70;;;8.40;;
65982;SDS011;52740;40.620;-8.640;2022-08-03T06:35:41;12.15;;;7.25;;
65982;SDS011;52740;40.620;-8.640;2022-08-03T06:37:43;13.93;;;8.05;;
65982;SDS011;52740;40.620;-8.640;2022-08-03T06:39:45;17.00;;;8.23;;
65982;SDS011;52740;40.620;-8.640;2022-08-03T06:41:45;12.73;;;7.70;;
65982;SDS011;52740;40.620;-8.640;2022-08-03T06:43:46;12.10;;;7.18;;
65982;SDS011;52740;40.620;-8.640;2022-08-03T06:45:47;14.35;;;7.30;;
65982;SDS011;52740;40.620;-8.640;2022-08-03T06:47:58;11.80;;;7.65;;
65982;SDS011;52740;40.620;-8.640;2022-08-03T06:50:04;11.93;;;7.38;;
65982;SDS011;52740;40.620;-8.640;2022-08-03T06:52:06;13.88;;;7.78;;
65982;SDS011;52740;40.620;-8.640;2022-08-03T06:54:07;13.45;;;7.35;;
65982;SDS011;52740;40.620;-8.640;2022-08-03T06:56:07;19.55;;;7.95;;
65982;SDS011;52740;40.620;-8.640;2022-08-03T06:58:08;14.82;;;7.28;;
65982;SDS011;52740;40.620;-8.640;2022-08-03T07:00:09;13.40;;;7.55;;
65982;SDS011;52740;40.620;-8.640;2022-08-03T07:02:11;14.70;;;6.75;;
65982;SDS011;52740;40.620;-8.640;2022-08-03T07:04:11;13.88;;;8.05;;
65982;SDS011;52740;40.620;-8.640;2022-08-03T07:06:12;12.13;;;7.00;;
65982;SDS011;52740;40.620;-8.640;2022-08-03T07:08:13;11.70;;;6.93;;
65982;SDS011;52740;40.620;-8.640;2022-08-03T07:10:14;13.20;;;6.88;;
65982;SDS011;52740;40.620;-8.640;2022-08-03T07:12:14;18.17;;;7.05;;
65982;SDS011;52740;40.620;-8.640;2022-08-03T07:14:15;14.75;;;7.65;;
65982;SDS011;52740;40.620;-8.640;2022-08-03T07:16:16;18.25;;;7.57;;
65982;SDS011;52740;40.620;-8.640;2022-08-03T07:18:17;16.67;;;7.53;;
65982;SDS011;52740;40.620;-8.640;2022-08-03T07:20:17;13.10;;;7.60;;
65982;SDS011;52740;40.620;-8.640;2022-08-03T07:22:18;16.50;;;6.90;;
65982;SDS011;52740;40.620;-8.640;2022-08-03T07:24:19;13.10;;;6.35;;
65982;SDS011;52740;40.620;-8.640;2022-08-03T07:26:20;8.85;;;5.38;;
65982;SDS011;52740;40.620;-8.640;2022-08-03T07:28:20;9.77;;;5.15;;
65982;SDS011;52740;40.620;-8.640;2022-08-03T07:30:22;9.68;;;5.03;;
65982;SDS011;52740;40.620;-8.640;2022-08-03T07:32:23;6.80;;;4.47;;
65982;SDS011;52740;40.620;-8.640;2022-08-03T07:34:24;6.80;;;4.60;;
65982;SDS011;52740;40.620;-8.640;2022-08-03T07:36:25;6.25;;;3.85;;
65982;SDS011;52740;40.620;-8.640;2022-08-03T07:38:26;11.82;;;6.00;;
65982;SDS011;52740;40.620;-8.640;2022-08-03T07:40:27;15.85;;;6.88;;
65982;SDS011;52740;40.620;-8.640;2022-08-03T07:42:27;12.38;;;5.72;;
65982;SDS011;52740;40.620;-8.640;2022-08-03T07:44:29;15.07;;;6.40;;
65982;SDS011;52740;40.620;-8.640;2022-08-03T07:46:29;13.98;;;6.15;;
65982;SDS011;52740;40.620;-8.640;2022-08-03T07:48:30;14.20;;;5.72;;
65982;SDS011;52740;40.620;-8.640;2022-08-03T07:50:31;13.23;;;5.90;;
65982;SDS011;52740;40.620;-8.640;2022-08-03T07:52:31;16.65;;;7.60;;
65982;SDS011;52740;40.620;-8.640;2022-08-03T07:54:47;15.68;;;6.75;;
65982;SDS011;52740;40.620;-8.640;2022-08-03T07:56:48;13.90;;;6.05;;
65982;SDS011;52740;40.620;-8.640;2022-08-03T07:58:49;15.07;;;6.45;;
65982;SDS011;52740;40.620;-8.640;2022-08-03T08:00:53;14.38;;;6.25;;
65982;SDS011;52740;40.620;-8.640;2022-08-03T08:02:54;10.40;;;5.93;;
65982;SDS011;52740;40.620;-8.640;2022-08-03T08:04:55;12.13;;;7.13;;
65982;SDS011;52740;40.620;-8.640;2022-08-03T08:06:56;12.60;;;6.32;;
65982;SDS011;52740;40.620;-8.640;2022-08-03T08:08:56;16.38;;;7.05;;
65982;SDS011;52740;40.620;-8.640;2022-08-03T08:11:00;14.70;;;7.00;;
65982;SDS011;52740;40.620;-8.640;2022-08-03T08:13:02;14.07;;;6.78;;
65982;SDS011;52740;40.620;-8.640;2022-08-03T08:15:03;16.45;;;6.55;;
65982;SDS011;52740;40.620;-8.640;2022-08-03T08:17:05;12.57;;;7.30;;
65982;SDS011;52740;40.620;-8.640;2022-08-03T08:19:06;15.43;;;6.47;;
65982;SDS011;52740;40.620;-8.640;2022-08-03T08:21:06;21.05;;;6.57;;
65982;SDS011;52740;40.620;-8.640;2022-08-03T08:23:07;12.98;;;6.90;;
65982;SDS011;52740;40.620;-8.640;2022-08-03T08:25:08;12.82;;;6.90;;
65982;SDS011;52740;40.620;-8.640;2022-08-03T08:27:09;11.90;;;6.68;;
65982;SDS011;52740;40.620;-8.640;2022-08-03T08:29:11;11.95;;;6.95;;
65982;SDS011;52740;40.620;-8.640;2022-08-03T08:31:11;10.43;;;6.60;;
65982;SDS011;52740;40.620;-8.640;2022-08-03T08:33:13;12.85;;;6.88;;
65982;SDS011;52740;40.620;-8.640;2022-08-03T08:35:14;13.02;;;7.63;;
65982;SDS011;52740;40.620;-8.640;2022-08-03T08:37:15;13.13;;;7.63;;
65982;SDS011;52740;40.620;-8.640;2022-08-03T08:39:16;16.65;;;7.63;;
65982;SDS011;52740;40.620;-8.640;2022-08-03T08:41:17;13.23;;;6.82;;
65982;SDS011;52740;40.620;-8.640;2022-08-03T08:43:18;14.05;;;6.10;;
65982;SDS011;52740;40.620;-8.640;2022-08-03T08:45:19;14.77;;;7.18;;
65982;SDS011;52740;40.620;-8.640;2022-08-03T08:47:23;18.58;;;8.07;;
65982;SDS011;52740;40.620;-8.640;2022-08-03T08:49:25;15.65;;;7.50;;
65982;SDS011;52740;40.620;-8.640;2022-08-03T08:51:29;10.02;;;6.63;;
65982;SDS011;52740;40.620;-8.640;2022-08-03T08:53:30;11.23;;;6.60;;
65982;SDS011;52740;40.620;-8.640;2022-08-03T08:55:35;17.55;;;7.13;;
65982;SDS011;52740;40.620;-8.640;2022-08-03T08:57:37;13.10;;;7.05;;
65982;SDS011;52740;40.620;-8.640;2022-08-03T08:59:41;16.02;;;6.93;;
65982;SDS011;52740;40.620;-8.640;2022-08-03T09:01:43;13.45;;;6.97;;
65982;SDS011;52740;40.620;-8.640;2022-08-03T09:03:44;10.68;;;6.53;;
65982;SDS011;52740;40.620;-8.640;2022-08-03T09:05:46;11.05;;;6.40;;
65982;SDS011;52740;40.620;-8.640;2022-08-03T09:07:47;11.18;;;6.45;;
65982;SDS011;52740;40.620;-8.640;2022-08-03T09:09:48;14.05;;;6.47;;
65982;SDS011;52740;40.620;-8.640;2022-08-03T09:11:49;12.43;;;6.65;;
65982;SDS011;52740;40.620;-8.640;2022-08-03T09:13:50;14.75;;;6.72;;
65982;SDS011;52740;40.620;-8.640;2022-08-03T09:16:10;13.43;;;7.03;;
65982;SDS011;52740;40.620;-8.640;2022-08-03T09:18:20;15.75;;;6.90;;
65982;SDS011;52740;40.620;-8.640;2022-08-03T09:20:29;15.63;;;8.10;;
65982;SDS011;52740;40.620;-8.640;2022-08-03T09:22:32;18.20;;;7.47;;
65982;SDS011;52740;40.620;-8.640;2022-08-03T09:24:32;12.63;;;7.05;;
65982;SDS011;52740;40.620;-8.640;2022-08-03T09:26:34;17.75;;;6.97;;
65982;SDS011;52740;40.620;-8.640;2022-08-03T09:28:36;15.43;;;7.07;;
65982;SDS011;52740;40.620;-8.640;2022-08-03T09:30:41;12.40;;;7.70;;
65982;SDS011;52740;40.620;-8.640;2022-08-03T09:33:00;12.43;;;6.85;;
65982;SDS011;52740;40.620;-8.640;2022-08-03T09:35:03;14.95;;;7.70;;
65982;SDS011;52740;40.620;-8.640;2022-08-03T09:37:11;18.00;;;8.48;;
65982;SDS011;52740;40.620;-8.640;2022-08-03T09:39:21;13.02;;;7.93;;
65982;SDS011;52740;40.620;-8.640;2022-08-03T09:41:26;13.45;;;7.78;;
65982;SDS011;52740;40.620;-8.640;2022-08-03T09:43:27;22.52;;;7.60;;
65982;SDS011;52740;40.620;-8.640;2022-08-03T09:45:44;17.67;;;7.53;;
65982;SDS011;52740;40.620;-8.640;2022-08-03T09:47:45;16.90;;;7.60;;
65982;SDS011;52740;40.620;-8.640;2022-08-03T09:49:55;15.75;;;7.25;;
65982;SDS011;52740;40.620;-8.640;2022-08-03T09:52:11;18.92;;;7.85;;
65982;SDS011;52740;40.620;-8.640;2022-08-03T09:54:26;17.73;;;8.30;;
65982;SDS011;52740;40.620;-8.640;2022-08-03T09:58:46;15.43;;;6.93;;
65982;SDS011;52740;40.620;-8.640;2022-08-03T10:03:04;15.18;;;7.50;;
65982;SDS011;52740;40.620;-8.640;2022-08-03T10:07:08;15.45;;;8.20;;
65982;SDS011;52740;40.620;-8.640;2022-08-03T10:09:11;16.88;;;8.45;;
65982;SDS011;52740;40.620;-8.640;2022-08-03T10:11:20;16.13;;;9.07;;
65982;SDS011;52740;40.620;-8.640;2022-08-03T10:13:29;11.60;;;7.38;;
65982;SDS011;52740;40.620;-8.640;2022-08-03T10:15:30;15.50;;;7.43;;
65982;SDS011;52740;40.620;-8.640;2022-08-03T10:17:31;12.52;;;7.05;;
65982;SDS011;52740;40.620;-8.640;2022-08-03T10:19:32;16.67;;;6.95;;
65982;SDS011;52740;40.620;-8.640;2022-08-03T10:21:33;12.00;;;7.13;;
65982;SDS011;52740;40.620;-8.640;2022-08-03T10:23:37;12.25;;;7.47;;
65982;SDS011;52740;40.620;-8.640;2022-08-03T10:25:39;14.50;;;7.57;;
65982;SDS011;52740;40.620;-8.640;2022-08-03T10:27:44;12.97;;;7.90;;
65982;SDS011;52740;40.620;-8.640;2022-08-03T10:29:49;13.73;;;7.25;;
65982;SDS011;52740;40.620;-8.640;2022-08-03T10:31:53;13.68;;;8.07;;
65982;SDS011;52740;40.620;-8.640;2022-08-03T10:33:58;16.60;;;7.82;;
65982;SDS011;52740;40.620;-8.640;2022-08-03T10:36:01;13.70;;;7.30;;
65982;SDS011;52740;40.620;-8.640;2022-08-03T10:38:08;15.32;;;8.45;;
65982;SDS011;52740;40.620;-8.640;2022-08-03T10:40:12;12.88;;;7.97;;
65982;SDS011;52740;40.620;-8.640;2022-08-03T10:42:22;17.20;;;8.80;;
65982;SDS011;52740;40.620;-8.640;2022-08-03T10:44:27;13.57;;;7.72;;
65982;SDS011;52740;40.620;-8.640;2022-08-03T10:46:33;13.85;;;7.65;;
65982;SDS011;52740;40.620;-8.640;2022-08-03T10:48:35;19.17;;;8.20;;
65982;SDS011;52740;40.620;-8.640;2022-08-03T10:50:37;16.77;;;8.88;;
65982;SDS011;52740;40.620;-8.640;2022-08-03T10:52:56;18.20;;;8.80;;
65982;SDS011;52740;40.620;-8.640;2022-08-03T10:55:01;13.05;;;9.23;;
65982;SDS011;52740;40.620;-8.640;2022-08-03T11:01:52;15.02;;;10.48;;
65982;SDS011;52740;40.620;-8.640;2022-08-03T11:10:30;16.83;;;11.10;;
65982;SDS011;52740;40.620;-8.640;2022-08-03T11:12:31;17.90;;;11.88;;
65982;SDS011;52740;40.620;-8.640;2022-08-03T11:14:43;17.13;;;10.93;;
65982;SDS011;52740;40.620;-8.640;2022-08-03T11:16:50;15.40;;;10.43;;
65982;SDS011;52740;40.620;-8.640;2022-08-03T11:19:08;19.85;;;11.15;;
65982;SDS011;52740;40.620;-8.640;2022-08-03T11:21:11;21.35;;;10.48;;
65982;SDS011;52740;40.620;-8.640;2022-08-03T11:23:12;14.65;;;7.47;;
65982;SDS011;52740;40.620;-8.640;2022-08-03T11:25:13;17.23;;;7.10;;
65982;SDS011;52740;40.620;-8.640;2022-08-03T11:29:26;13.90;;;6.28;;
65982;SDS011;52740;40.620;-8.640;2022-08-03T11:33:30;11.40;;;6.40;;
65982;SDS011;52740;40.620;-8.640;2022-08-03T11:35:32;15.18;;;6.57;;
65982;SDS011;52740;40.620;-8.640;2022-08-03T11:39:55;10.05;;;5.32;;
65982;SDS011;52740;40.620;-8.640;2022-08-03T11:41:56;9.80;;;5.30;;
65982;SDS011;52740;40.620;-8.640;2022-08-03T11:43:57;8.48;;;5.82;;
65982;SDS011;52740;40.620;-8.640;2022-08-03T11:46:08;11.82;;;5.47;;
65982;SDS011;52740;40.620;-8.640;2022-08-03T11:48:20;7.97;;;5.57;;
65982;SDS011;52740;40.620;-8.640;2022-08-03T11:50:22;13.90;;;6.38;;
65982;SDS011;52740;40.620;-8.640;2022-08-03T11:52:23;12.48;;;5.68;;
65982;SDS011;52740;40.620;-8.640;2022-08-03T11:54:24;8.85;;;5.50;;
65982;SDS011;52740;40.620;-8.640;2022-08-03T11:56:25;12.80;;;6.15;;
65982;SDS011;52740;40.620;-8.640;2022-08-03T11:58:27;9.32;;;5.05;;
65982;SDS011;52740;40.620;-8.640;2022-08-03T12:00:29;9.77;;;5.55;;
65982;SDS011;52740;40.620;-8.640;2022-08-03T12:02:31;10.82;;;5.82;;
65982;SDS011;52740;40.620;-8.640;2022-08-03T12:04:48;12.75;;;5.82;;
65982;SDS011;52740;40.620;-8.640;2022-08-03T12:06:59;9.13;;;5.57;;
65982;SDS011;52740;40.620;-8.640;2022-08-03T12:09:00;9.18;;;6.32;;
65982;SDS011;52740;40.620;-8.640;2022-08-03T12:11:02;13.45;;;6.50;;
65982;SDS011;52740;40.620;-8.640;2022-08-03T12:13:07;11.20;;;6.07;;
65982;SDS011;52740;40.620;-8.640;2022-08-03T12:15:08;14.18;;;5.75;;
65982;SDS011;52740;40.620;-8.640;2022-08-03T12:17:09;12.10;;;6.30;;
65982;SDS011;52740;40.620;-8.640;2022-08-03T12:19:10;13.77;;;6.57;;
65982;SDS011;52740;40.620;-8.640;2022-08-03T12:21:11;13.55;;;6.60;;
65982;SDS011;52740;40.620;-8.640;2022-08-03T12:23:12;13.60;;;6.38;;
65982;SDS011;52740;40.620;-8.640;2022-08-03T12:25:20;11.43;;;6.70;;
65982;SDS011;52740;40.620;-8.640;2022-08-03T12:27:23;15.82;;;7.05;;
65982;SDS011;52740;40.620;-8.640;2022-08-03T12:29:25;11.48;;;6.47;;
65982;SDS011;52740;40.620;-8.640;2022-08-03T12:31:26;14.05;;;6.20;;
65982;SDS011;52740;40.620;-8.640;2022-08-03T12:33:27;14.35;;;6.75;;
65982;SDS011;52740;40.620;-8.640;2022-08-03T12:35:28;16.80;;;6.82;;
65982;SDS011;52740;40.620;-8.640;2022-08-03T12:37:29;10.27;;;6.30;;
65982;SDS011;52740;40.620;-8.640;2022-08-03T12:39:29;12.75;;;5.85;;
65982;SDS011;52740;40.620;-8.640;2022-08-03T12:41:34;11.63;;;5.97;;
65982;SDS011;52740;40.620;-8.640;2022-08-03T12:43:36;11.48;;;6.45;;
65982;SDS011;52740;40.620;-8.640;2022-08-03T12:45:37;11.73;;;5.55;;
65982;SDS011;52740;40.620;-8.640;2022-08-03T12:47:50;8.80;;;5.07;;
65982;SDS011;52740;40.620;-8.640;2022-08-03T12:49:55;17.40;;;6.38;;
65982;SDS011;52740;40.620;-8.640;2022-08-03T12:51:57;9.52;;;5.38;;